Time;durP1;ratioP1;P1;durP2;ratioP2;P2;SDS_P1;SDS_P2;PMS_P1;PMS_P2;Temp;Humidity;BMP_temperature;BMP_pressure;BME280_temperature;BME280_humidity;BME280_pressure;Samples;Min_cycle;Max_cycle;Signal;HPM_P1;HPM_P2
2021/05/12 00:01:27;;;;;;;48.75;32.97;;;10.30;99.90;;;;;;4164562;28;20477;-80
2021/05/12 00:03:46;;;;;;;53.38;31.98;;;10.50;99.90;;;;;;4163915;28;20040;-80
2021/05/12 00:10:48;;;;;;;45.10;29.45;;;10.40;99.90;;;;;;4153320;28;20043;-80
2021/05/12 00:12:49;;;;;;;49.30;28.75;;;10.30;99.90;;;;;;4164764;28;20031;-80
2021/05/12 00:17:11;;;;;;;42.35;28.80;;;10.20;99.90;;;;;;4164079;28;20087;-80
2021/05/12 00:21:54;;;;;;;43.78;28.83;;;10.10;99.90;;;;;;4159207;28;20037;-80
2021/05/12 00:26:53;;;;;;;39.20;24.23;;;10.10;99.90;;;;;;4151271;28;20265;-79
2021/05/12 00:28:53;;;;;;;40.30;24.02;;;10.00;99.90;;;;;;4143798;28;20173;-79
2021/05/12 00:30:54;;;;;;;41.42;24.45;;;10.00;99.90;;;;;;4159698;28;20034;-80
2021/05/12 00:33:15;;;;;;;40.55;24.27;;;9.80;99.90;;;;;;4151333;28;20034;-80
2021/05/12 00:37:55;;;;;;;43.97;23.40;;;10.00;99.90;;;;;;4165814;28;20076;-81
2021/05/12 00:39:56;;;;;;;36.10;22.02;;;9.90;99.90;;;;;;4162775;28;20041;-80
2021/05/12 00:41:58;;;;;;;35.47;22.05;;;9.80;99.90;;;;;;4167917;28;20044;-80
2021/05/12 00:43:58;;;;;;;39.58;21.25;;;10.00;99.90;;;;;;4170669;28;20091;-80
2021/05/12 00:48:40;;;;;;;35.67;21.20;;;;;;;;;;4162857;28;20048;-80
2021/05/12 00:53:01;;;;;;;34.00;19.92;;;9.80;99.90;;;;;;4167597;28;20036;-80
2021/05/12 00:55:21;;;;;;;29.67;19.20;;;9.70;99.90;;;;;;4162139;28;20136;-80
2021/05/12 00:57:41;;;;;;;30.45;18.77;;;9.60;99.90;;;;;;4163462;28;20045;-80
2021/05/12 00:59:43;;;;;;;37.42;18.90;;;9.50;99.90;;;;;;4162343;28;20451;-80
2021/05/12 01:04:24;;;;;;;34.33;18.13;;;9.50;99.90;;;;;;4171415;28;20056;-80
2021/05/12 01:06:49;;;;;;;30.42;16.60;;;9.40;99.90;;;;;;4161985;28;20025;-80
2021/05/12 01:09:27;;;;;;;34.97;18.88;;;8.50;99.90;;;;;;4161647;28;20045;-80
2021/05/12 01:11:27;;;;;;;27.63;17.40;;;9.30;99.90;;;;;;4163019;28;20353;-80
2021/05/12 01:13:28;;;;;;;38.22;19.60;;;9.30;99.90;;;;;;4163062;28;20056;-79
2021/05/12 01:15:47;;;;;;;32.95;20.02;;;9.20;99.90;;;;;;4176270;28;20064;-79
2021/05/12 01:18:11;;;;;;;34.85;19.27;;;9.10;99.90;;;;;;4162776;28;20045;-80
2021/05/12 01:22:32;;;;;;;33.70;17.88;;;9.10;99.90;;;;;;4150850;28;20040;-80
2021/05/12 01:24:51;;;;;;;31.65;20.27;;;9.00;99.90;;;;;;4161787;28;20034;-80
2021/05/12 01:26:52;;;;;;;28.48;19.30;;;9.00;99.90;;;;;;4162516;28;20040;-81
2021/05/12 01:29:12;;;;;;;32.15;18.45;;;9.10;99.90;;;;;;4162358;28;20113;-80
2021/05/12 01:31:50;;;;;;;32.65;18.58;;;9.20;99.90;;;;;;4161973;28;20346;-80
2021/05/12 01:33:51;;;;;;;30.27;16.48;;;9.20;99.90;;;;;;4162582;28;20037;-80
2021/05/12 01:38:31;;;;;;;26.02;14.30;;;9.20;99.90;;;;;;4135872;28;20049;-80
2021/05/12 01:40:32;;;;;;;27.13;14.75;;;9.20;99.90;;;;;;4150110;28;20437;-80
2021/05/12 01:42:33;;;;;;;25.85;15.65;;;9.10;99.90;;;;;;4155821;28;20030;-80
2021/05/12 01:44:34;;;;;;;19.08;14.23;;;9.10;99.90;;;;;;4162502;28;20049;-80
2021/05/12 01:46:36;;;;;;;16.73;13.60;;;9.10;99.90;;;;;;4150765;28;20048;-79
2021/05/12 01:48:56;;;;;;;23.17;15.02;;;9.10;99.90;;;;;;4144467;28;20046;-80
2021/05/12 01:50:58;;;;;;;23.30;15.38;;;9.10;99.90;;;;;;4155693;28;20033;-80
2021/05/12 01:53:00;;;;;;;22.27;14.57;;;9.10;99.90;;;;;;4151459;28;20030;-80
2021/05/12 01:57:58;;;;;;;19.73;12.90;;;9.10;99.90;;;;;;4160737;28;20094;-80
2021/05/12 02:00:21;;;;;;;20.35;12.05;;;9.20;99.90;;;;;;4170490;28;20534;-80
2021/05/12 02:02:22;;;;;;;23.92;12.45;;;9.20;99.90;;;;;;4178203;28;20029;-80
2021/05/12 02:04:41;;;;;;;22.42;13.43;;;9.20;99.90;;;;;;4164531;28;20103;-80
2021/05/12 02:09:05;;;;;;;20.27;13.10;;;9.10;99.90;;;;;;4151013;28;20493;-80
2021/05/12 02:11:07;;;;;;;15.77;12.27;;;9.20;99.90;;;;;;4161999;28;20037;-80
2021/05/12 02:13:29;;;;;;;20.67;13.68;;;9.10;99.90;;;;;;4162101;28;20412;-80
2021/05/12 02:18:08;;;;;;;21.50;13.40;;;9.20;99.90;;;;;;4163041;28;20112;-80
2021/05/12 02:20:11;;;;;;;19.83;12.30;;;9.20;99.90;;;;;;4162683;28;20461;-80
2021/05/12 02:27:28;;;;;;;27.73;13.60;;;9.00;99.90;;;;;;4146336;28;20080;-80
2021/05/12 02:29:48;;;;;;;24.67;15.95;;;9.10;99.90;;;;;;4137059;28;20045;-80
2021/05/12 02:31:48;;;;;;;20.20;13.60;;;9.10;99.90;;;;;;4152200;28;20034;-80
2021/05/12 02:36:27;;;;;;;28.08;17.45;;;9.10;99.90;;;;;;4134540;28;20072;-80
2021/05/12 02:38:28;;;;;;;27.00;17.60;;;9.10;99.90;;;;;;4153045;28;20037;-79
2021/05/12 02:41:07;;;;;;;33.67;18.02;;;9.20;99.90;;;;;;4155996;28;20457;-80
2021/05/12 02:43:26;;;;;;;28.35;17.17;;;9.20;99.90;;;;;;4164397;28;20578;-80
2021/05/12 02:45:45;;;;;;;27.35;18.98;;;9.20;99.90;;;;;;4162478;28;20025;-80
2021/05/12 02:50:09;;;;;;;33.50;22.38;;;9.20;99.90;;;;;;4162488;28;20064;-80
2021/05/12 02:55:06;;;;;;;41.90;24.98;;;9.20;99.90;;;;;;4181794;28;20075;-80
2021/05/12 02:57:25;;;;;;;36.30;21.67;;;9.20;99.90;;;;;;4153136;28;20025;-79
2021/05/12 02:59:45;;;;;;;34.85;21.83;;;9.10;99.90;;;;;;4165839;28;20373;-81
2021/05/12 03:01:46;;;;;;;30.63;20.58;;;9.10;99.90;;;;;;4164760;28;20029;-81
2021/05/12 03:03:47;;;;;;;40.60;23.52;;;9.00;99.90;;;;;;4164688;28;20029;-81
2021/05/12 03:08:44;;;;;;;43.55;25.98;;;8.80;99.90;;;;;;4165370;28;20171;-81
2021/05/12 03:10:46;;;;;;;36.83;22.63;;;8.70;99.90;;;;;;4164504;28;20036;-79
2021/05/12 03:12:49;;;;;;;42.72;24.25;;;8.70;99.90;;;;;;4171064;28;20124;-80
2021/05/12 03:15:09;;;;;;;44.30;24.27;;;8.80;99.90;;;;;;4171876;28;20350;-79
2021/05/12 03:17:29;;;;;;;44.78;25.05;;;8.70;99.90;;;;;;4164129;28;20317;-80
2021/05/12 03:19:29;;;;;;;44.58;25.27;;;8.70;99.90;;;;;;4165951;28;20457;-79
2021/05/12 03:24:26;;;;;;;42.95;26.63;;;8.60;99.90;;;;;;4165705;28;20071;-79
2021/05/12 03:29:05;;;;;;;40.38;26.67;;;8.40;99.90;;;;;;4165658;28;20048;-80
2021/05/12 03:31:43;;;;;;;53.22;29.42;;;8.30;99.90;;;;;;4150362;28;20046;-80
2021/05/12 03:33:44;;;;;;;48.85;28.20;;;8.20;99.90;;;;;;4154011;28;20130;-79
2021/05/12 03:43:04;;;;;;;50.78;29.52;;;8.40;99.90;;;;;;4152034;28;20071;-80
2021/05/12 03:45:06;;;;;;;49.13;29.65;;;8.40;99.90;;;;;;4164163;28;20060;-79
2021/05/12 03:50:24;;;;;;;57.42;35.28;;;8.30;99.90;;;;;;4164062;28;20079;-79
2021/05/12 03:55:22;;;;;;;69.80;36.45;;;8.40;99.90;;;;;;4165140;28;20053;-79
2021/05/12 03:57:23;;;;;;;59.72;35.30;;;8.40;99.90;;;;;;4172110;28;20481;-79
2021/05/12 03:59:24;;;;;;;64.97;36.65;;;8.40;99.90;;;;;;4171011;28;20026;-80
2021/05/12 04:01:24;;;;;;;67.90;37.95;;;8.40;99.90;;;;;;4177320;28;20183;-79
2021/05/12 04:05:46;;;;;;;61.40;35.25;;;8.50;99.90;;;;;;4155321;28;20076;-79
2021/05/12 04:07:50;;;;;;;65.53;37.65;;;8.40;99.90;;;;;;4175229;28;20052;-80
2021/05/12 04:09:51;;;;;;;74.10;39.83;;;8.70;99.90;;;;;;4167558;28;20432;-80
2021/05/12 04:14:11;;;;;;;69.90;38.33;;;8.50;99.90;;;;;;4164855;28;20076;-79
2021/05/12 04:16:31;;;;;;;63.92;36.00;;;8.60;99.90;;;;;;4165139;28;20447;-80
2021/05/12 04:25:31;;;;;;;57.47;37.25;;;8.70;99.90;;;;;;4173159;28;20045;-80
2021/05/12 04:27:31;;;;;;;53.88;33.63;;;8.70;99.90;;;;;;4167420;28;20041;-80
2021/05/12 04:29:51;;;;;;;52.03;33.55;;;8.60;99.90;;;;;;4170864;28;20030;-80
2021/05/12 04:32:11;;;;;;;50.28;33.20;;;8.70;99.90;;;;;;4162536;28;20030;-80
2021/05/12 04:34:29;;;;;;;48.85;33.70;;;8.60;99.90;;;;;;4162109;28;20104;-80
2021/05/12 04:36:31;;;;;;;45.95;30.92;;;8.70;99.90;;;;;;4170479;28;20514;-80
2021/05/12 04:39:11;;;;;;;48.38;32.70;;;8.70;99.90;;;;;;4145192;28;20039;-80
2021/05/12 04:41:11;;;;;;;53.03;28.92;;;8.70;99.90;;;;;;4164191;28;20025;-80
2021/05/12 04:43:12;;;;;;;51.95;29.30;;;8.80;99.90;;;;;;4170767;28;20032;-80
2021/05/12 04:45:33;;;;;;;52.38;31.00;;;8.80;99.90;;;;;;4175877;28;20045;-79
2021/05/12 04:49:53;;;;;;;42.17;27.70;;;8.70;99.90;;;;;;4170400;28;20087;-80
2021/05/12 04:52:12;;;;;;;50.30;31.25;;;8.70;99.90;;;;;;4172333;28;20037;-80
2021/05/12 04:54:31;;;;;;;46.58;31.90;;;8.60;99.90;;;;;;4169027;28;20495;-80
2021/05/12 04:56:52;;;;;;;57.30;32.30;;;8.60;99.90;;;;;;4173307;28;20033;-80
2021/05/12 04:58:52;;;;;;;49.55;28.83;;;8.50;99.90;;;;;;4168882;28;20045;-80
2021/05/12 05:01:31;;;;;;;50.75;30.50;;;8.50;99.90;;;;;;4168705;28;20034;-80
2021/05/12 05:03:50;;;;;;;53.60;30.23;;;8.50;99.90;;;;;;4174080;28;20064;-80
2021/05/12 05:05:51;;;;;;;45.65;28.45;;;8.50;99.90;;;;;;4169465;28;20029;-80
2021/05/12 05:08:29;;;;;;;49.88;29.55;;;8.50;99.90;;;;;;4176844;28;20086;-81
2021/05/12 05:10:49;;;;;;;47.22;28.92;;;8.60;99.90;;;;;;4163632;28;20462;-81
2021/05/12 05:13:08;;;;;;;46.85;28.95;;;8.70;99.90;;;;;;4157922;28;20393;-80
2021/05/12 05:15:09;;;;;;;46.78;30.80;;;8.80;99.90;;;;;;4176371;28;20112;-80
2021/05/12 05:17:29;;;;;;;49.80;30.90;;;8.90;99.90;;;;;;4168319;28;20465;-80
2021/05/12 05:19:32;;;;;;;47.67;30.73;;;9.00;99.90;;;;;;4168524;28;20036;-81
2021/05/12 05:21:33;;;;;;;49.70;30.38;;;9.20;99.90;;;;;;4176180;28;20040;-80
2021/05/12 05:28:34;;;;;;;42.92;29.33;;;9.40;99.90;;;;;;4174585;28;20067;-80
2021/05/12 05:43:27;;;;;;;41.60;29.48;;;9.90;99.90;;;;;;4161431;28;20036;-79
2021/05/12 05:46:05;;;;;;;45.53;29.50;;;10.00;99.90;;;;;;4167857;28;20112;-79
2021/05/12 05:48:06;;;;;;;35.60;28.30;;;10.10;99.90;;;;;;4161878;28;20087;-79
2021/05/12 05:50:08;;;;;;;46.25;29.42;;;10.20;99.90;;;;;;4161438;28;20489;-80
2021/05/12 05:52:28;;;;;;;41.72;27.25;;;10.30;99.90;;;;;;4162217;28;20049;-80
2021/05/12 05:54:29;;;;;;;40.38;26.95;;;10.40;99.90;;;;;;4162167;28;20034;-80
2021/05/12 05:56:30;;;;;;;39.95;27.73;;;10.50;99.90;;;;;;4176190;28;20365;-80
2021/05/12 06:01:28;;;;;;;37.75;26.17;;;10.60;99.90;;;;;;4166594;28;20082;-79
2021/05/12 06:03:29;;;;;;;32.17;24.73;;;10.70;99.90;;;;;;4163547;28;20053;-79
2021/05/12 06:05:30;;;;;;;39.58;23.92;;;10.70;99.90;;;;;;4168549;28;20099;-80
2021/05/12 06:10:10;;;;;;;31.70;21.30;;;10.90;99.90;;;;;;4171599;28;20777;-80
2021/05/12 06:12:29;;;;;;;29.80;19.70;;;11.00;99.90;;;;;;4167249;28;20036;-82
2021/05/12 06:14:30;;;;;;;38.85;21.65;;;11.00;99.90;;;;;;4163216;28;20124;-80
2021/05/12 06:18:55;;;;;;;27.13;18.50;;;11.10;99.90;;;;;;4164716;28;20056;-82
2021/05/12 06:21:02;;;;;;;22.92;16.35;;;11.30;99.90;;;;;;4167466;28;20025;-82
2021/05/12 06:23:21;;;;;;;24.73;15.40;;;11.40;99.90;;;;;;4156866;28;20030;-81
2021/05/12 06:25:22;;;;;;;26.73;17.42;;;11.40;99.90;;;;;;4167715;28;20496;-81
2021/05/12 06:32:21;;;;;;;25.50;16.50;;;11.50;99.90;;;;;;4169939;28;20091;-79
2021/05/12 06:34:42;;;;;;;30.98;17.48;;;11.50;99.90;;;;;;4170618;28;20029;-82
2021/05/12 06:36:43;;;;;;;24.50;14.45;;;11.60;99.90;;;;;;4166111;28;20037;-81
2021/05/12 06:39:03;;;;;;;23.77;13.77;;;11.70;99.90;;;;;;4169926;28;20464;-81
2021/05/12 06:41:04;;;;;;;27.17;16.13;;;11.80;99.90;;;;;;4167645;28;20042;-81
2021/05/12 06:45:47;;;;;;;19.67;13.98;;;11.80;99.90;;;;;;4172346;28;20040;-81
2021/05/12 06:47:53;;;;;;;25.58;13.70;;;11.80;99.90;;;;;;4171199;28;20033;-81
2021/05/12 06:52:33;;;;;;;22.67;11.98;;;11.90;99.90;;;;;;4166686;28;20041;-81
2021/05/12 06:59:54;;;;;;;18.73;10.85;;;12.20;99.90;;;;;;4172259;28;20044;-81
2021/05/12 07:01:54;;;;;;;22.23;10.57;;;12.30;99.90;;;;;;4167966;28;20053;-81
2021/05/12 07:03:55;;;;;;;17.80;10.48;;;12.20;99.90;;;;;;4170804;28;20036;-81
2021/05/12 07:06:38;;;;;;;25.48;10.82;;;12.30;99.90;;;;;;4168037;28;20389;-82
2021/05/12 07:08:40;;;;;;;19.10;8.93;;;12.40;99.90;;;;;;4161864;28;20119;-83
2021/05/12 07:10:42;;;;;;;18.98;8.80;;;12.30;99.90;;;;;;4175593;28;20025;-82
2021/05/12 07:15:07;;;;;;;17.08;8.40;;;12.40;99.90;;;;;;4167623;28;20393;-82
2021/05/12 07:17:09;;;;;;;17.25;9.82;;;12.60;99.90;;;;;;4155679;28;20129;-81
2021/05/12 07:19:11;;;;;;;23.75;7.18;;;12.70;99.90;;;;;;4168786;28;20515;-81
2021/05/12 07:23:31;;;;;;;14.70;7.25;;;12.80;99.90;;;;;;4173622;28;20048;-82
2021/05/12 07:25:51;;;;;;;13.38;8.10;;;12.90;99.90;;;;;;4166082;28;20037;-83
2021/05/12 07:28:13;;;;;;;14.70;8.13;;;13.00;99.90;;;;;;4171832;28;20037;-82
2021/05/12 07:30:32;;;;;;;16.05;7.97;;;13.00;99.90;;;;;;4172593;28;20025;-82
2021/05/12 07:37:13;;;;;;;14.40;7.68;;;13.30;99.90;;;;;;4165149;28;20723;-82
2021/05/12 07:41:52;;;;;;;14.57;7.35;;;13.50;99.90;;;;;;4177933;28;20109;-82
2021/05/12 07:47:08;;;;;;;16.40;7.03;;;13.80;99.90;;;;;;4169427;28;20095;-82
2021/05/12 07:49:09;;;;;;;13.80;6.60;;;14.00;99.90;;;;;;4177089;28;20033;-82
2021/05/12 07:51:29;;;;;;;12.57;5.95;;;14.10;99.90;;;;;;4167308;28;20500;-82
2021/05/12 07:53:31;;;;;;;14.25;6.13;;;14.30;99.90;;;;;;4172160;28;20433;-82
2021/05/12 07:55:50;;;;;;;14.20;5.78;;;14.20;99.90;;;;;;4172516;28;20025;-82
2021/05/12 07:58:16;;;;;;;23.48;7.15;;;14.40;99.90;;;;;;4180490;28;20214;-82
2021/05/12 08:02:37;;;;;;;17.13;5.57;;;14.60;99.90;;;;;;4178710;28;20181;-82
2021/05/12 08:07:36;;;;;;;16.40;4.75;;;14.80;99.90;;;;;;4171742;28;20145;-81
2021/05/12 08:09:55;;;;;;;19.05;5.75;;;15.00;99.90;;;;;;4175003;28;20063;-79
2021/05/12 08:12:15;;;;;;;11.38;4.68;;;15.30;99.90;;;;;;4155620;28;20034;-81
2021/05/12 08:14:16;;;;;;;14.27;5.90;;;15.50;99.90;;;;;;4170266;28;20104;-80
2021/05/12 08:16:16;;;;;;;15.00;5.07;;;15.60;99.90;;;;;;4171636;28;20387;-80
2021/05/12 08:18:37;;;;;;;15.90;4.72;;;15.70;99.90;;;;;;4168668;28;20384;-80
2021/05/12 08:20:57;;;;;;;12.20;4.57;;;15.50;99.90;;;;;;4163430;28;20072;-80
2021/05/12 08:28:13;;;;;;;13.65;4.05;;;15.30;99.90;;;;;;4163193;28;20056;-80
2021/05/12 08:33:14;;;;;;;11.00;3.92;;;15.70;99.90;;;;;;4165626;28;20121;-81
2021/05/12 08:35:14;;;;;;;10.98;3.53;;;15.60;99.90;;;;;;4165685;28;20022;-82
2021/05/12 08:40:12;;;;;;;10.55;3.95;;;16.00;99.90;;;;;;4170964;28;20591;-81
2021/05/12 08:42:15;;;;;;;11.30;4.45;;;16.00;99.90;;;;;;4168574;28;20116;-82
2021/05/12 08:46:38;;;;;;;10.20;3.85;;;16.00;99.90;;;;;;4164550;28;20041;-81
2021/05/12 08:48:59;;;;;;;13.80;4.43;;;16.00;99.90;;;;;;4174252;28;20049;-80
2021/05/12 08:51:18;;;;;;;10.02;5.03;;;16.10;99.90;;;;;;4173331;28;20056;-81
2021/05/12 08:53:37;;;;;;;13.18;5.20;;;16.40;99.90;;;;;;4168559;28;20122;-80
2021/05/12 08:55:38;;;;;;;11.85;5.75;;;16.50;99.90;;;;;;4164815;28;20091;-80
2021/05/12 08:57:39;;;;;;;13.65;5.13;;;16.70;99.90;;;;;;4165862;28;20485;-80
2021/05/12 09:00:17;;;;;;;9.57;4.35;;;16.80;99.90;;;;;;4168995;28;20490;-81
2021/05/12 09:02:37;;;;;;;9.25;4.55;;;16.80;99.90;;;;;;4169287;28;20034;-80
2021/05/12 09:04:56;;;;;;;11.38;5.63;;;16.90;99.90;;;;;;4162359;28;20033;-80
2021/05/12 09:06:57;;;;;;;12.23;5.20;;;16.70;99.90;;;;;;4163288;28;20040;-79
2021/05/12 09:09:35;;;;;;;12.80;5.22;;;16.90;99.90;;;;;;4156689;28;20038;-80
2021/05/12 09:11:36;;;;;;;13.95;5.20;;;17.10;99.90;;;;;;4169824;28;20584;-79
2021/05/12 09:13:39;;;;;;;9.43;4.32;;;17.10;99.90;;;;;;4165258;28;20079;-79
2021/05/12 09:15:42;;;;;;;8.52;3.17;;;17.20;99.90;;;;;;4169508;28;20035;-79
2021/05/12 09:17:44;;;;;;;9.50;3.72;;;16.30;99.90;;;;;;4174489;28;20029;-79
2021/05/12 09:19:48;;;;;;;8.18;3.55;;;17.50;99.90;;;;;;4156691;28;20088;-80
2021/05/12 09:22:01;;;;;;;12.10;4.45;;;17.90;99.90;;;;;;4174812;28;20044;-80
2021/05/12 09:24:21;;;;;;;12.07;4.25;;;18.10;99.90;;;;;;4153862;28;20031;-80
2021/05/12 09:26:22;;;;;;;11.40;3.83;;;18.20;99.90;;;;;;4164620;28;20068;-79
2021/05/12 09:28:27;;;;;;;10.18;4.32;;;18.20;99.90;;;;;;4163465;28;20144;-80
2021/05/12 09:30:47;;;;;;;9.95;4.38;;;18.30;99.90;;;;;;4164234;28;20031;-79
2021/05/12 09:32:49;;;;;;;15.85;4.38;;;18.70;99.90;;;;;;4168697;28;20033;-80
2021/05/12 09:35:03;;;;;;;6.72;3.20;;;18.70;99.90;;;;;;4168223;28;20085;-80
2021/05/12 09:37:26;;;;;;;8.55;4.00;;;18.90;99.90;;;;;;4163949;28;20124;-81
2021/05/12 09:42:19;;;;;;;11.50;3.25;;;18.90;99.90;;;;;;4159803;28;20388;-79
2021/05/12 09:44:39;;;;;;;12.65;3.25;;;18.60;99.90;;;;;;4163266;28;20025;-79
2021/05/12 09:46:41;;;;;;;9.55;3.60;;;18.50;99.90;;;;;;4164974;28;20037;-79
2021/05/12 09:49:16;;;;;;;11.65;3.45;;;18.70;99.90;;;;;;4165506;28;20068;-80
2021/05/12 09:51:20;;;;;;;7.82;3.30;;;18.90;99.90;;;;;;4157855;28;20041;-81
2021/05/12 09:53:41;;;;;;;10.05;3.92;;;;;;;;;;4159681;28;20223;-79
2021/05/12 09:58:11;;;;;;;10.38;4.05;;;19.60;99.90;;;;;;4170307;28;20133;-81
2021/05/12 10:00:32;;;;;;;6.88;3.05;;;20.10;99.90;;;;;;4171766;28;20022;-81
2021/05/12 10:03:04;;;;;;;8.63;2.95;;;20.10;99.90;;;;;;4164702;28;20030;-80
2021/05/12 10:05:05;;;;;;;7.38;2.55;;;19.80;99.90;;;;;;4170764;28;20666;-78
2021/05/12 10:07:13;;;;;;;9.60;2.95;;;19.50;99.90;;;;;;4169697;28;20036;-82
2021/05/12 10:09:32;;;;;;;6.20;3.17;;;19.10;99.90;;;;;;4161207;28;20041;-80
2021/05/12 10:11:52;;;;;;;6.95;2.45;;;20.00;99.90;;;;;;4167108;28;20037;-79
2021/05/12 10:13:53;;;;;;;6.45;3.13;;;19.30;99.90;;;;;;4170259;28;20124;-79
2021/05/12 10:21:31;;;;;;;6.72;3.65;;;20.30;99.90;;;;;;4166818;28;20068;-79
2021/05/12 10:23:51;;;;;;;9.93;3.72;;;19.10;99.90;;;;;;4163528;28;20129;-81
2021/05/12 10:26:11;;;;;;;8.35;3.15;;;19.00;99.90;;;;;;4162337;28;20036;-79
2021/05/12 10:28:30;;;;;;;9.98;3.10;;;19.20;99.90;;;;;;4165117;28;20047;-78
2021/05/12 10:30:33;;;;;;;10.00;3.55;;;18.70;99.90;;;;;;4167295;28;20423;-80
2021/05/12 10:32:56;;;;;;;9.30;3.13;;;18.70;99.90;;;;;;4153184;28;20108;-79
2021/05/12 10:35:11;;;;;;;6.13;2.67;;;19.70;99.90;;;;;;4161603;28;20503;-80
2021/05/12 10:37:27;;;;;;;8.60;2.40;;;20.30;99.90;;;;;;4158469;28;20034;-79
2021/05/12 10:39:51;;;;;;;8.45;3.25;;;20.50;99.90;;;;;;4158115;28;20557;-79
2021/05/12 10:42:11;;;;;;;10.63;3.55;;;20.10;99.90;;;;;;4172897;28;20056;-79
2021/05/12 10:44:20;;;;;;;6.10;3.30;;;19.40;99.90;;;;;;4160872;28;20026;-81
2021/05/12 10:46:43;;;;;;;11.10;3.65;;;19.00;99.90;;;;;;4165141;28;20025;-78
2021/05/12 10:49:08;;;;;;;10.73;3.78;;;18.60;99.90;;;;;;4164184;28;20498;-79
2021/05/12 10:51:46;;;;;;;7.93;3.22;;;18.10;99.90;;;;;;4161545;28;20037;-79
2021/05/12 10:54:09;;;;;;;13.20;3.03;;;17.90;99.90;;;;;;4154372;28;20041;-79
2021/05/12 10:56:11;;;;;;;10.52;3.90;;;17.90;99.90;;;;;;4165388;28;20040;-79
2021/05/12 10:58:15;;;;;;;11.20;3.60;;;17.90;99.90;;;;;;4165951;28;20025;-80
2021/05/12 11:00:19;;;;;;;11.32;3.70;;;17.90;99.90;;;;;;4170518;28;20064;-80
2021/05/12 11:05:02;;;;;;;15.73;4.45;;;17.80;99.90;;;;;;4162922;28;20032;-80
2021/05/12 11:07:03;;;;;;;9.02;3.90;;;18.80;99.90;;;;;;4168082;28;20029;-81
2021/05/12 11:09:17;;;;;;;10.82;3.90;;;20.10;99.90;;;;;;4168251;28;20041;-79
2021/05/12 11:11:57;;;;;;;12.32;3.47;;;20.60;99.90;;;;;;4155595;28;20030;-80
2021/05/12 11:14:21;;;;;;;8.45;2.95;;;20.30;99.90;;;;;;4157085;28;20477;-80
2021/05/12 11:16:40;;;;;;;7.13;3.92;;;20.90;99.90;;;;;;4167907;28;20043;-80
2021/05/12 11:19:08;;;;;;;14.25;3.30;;;21.80;99.90;;;;;;4173673;28;20034;-81
2021/05/12 11:21:36;;;;;;;8.23;3.78;;;;;;;;;;4161965;28;20033;-80
2021/05/12 11:24:07;;;;;;;8.30;3.67;;;22.10;99.90;;;;;;4162047;28;20039;-80
2021/05/12 11:31:38;;;;;;;10.77;3.40;;;20.40;99.90;;;;;;4163128;28;20033;-81
2021/05/12 11:33:39;;;;;;;11.85;4.68;;;20.90;99.90;;;;;;4161737;28;20042;-80
2021/05/12 11:41:03;;;;;;;13.80;5.10;;;21.20;99.90;;;;;;4163929;28;20504;-80
2021/05/12 11:43:05;;;;;;;13.88;4.72;;;21.10;99.90;;;;;;4165157;28;20735;-80
2021/05/12 11:45:09;;;;;;;13.52;4.15;;;20.50;99.90;;;;;;4166621;28;20872;-82
2021/05/12 11:47:30;;;;;;;9.77;3.90;;;20.40;99.90;;;;;;4167059;28;20083;-79
2021/05/12 11:49:38;;;;;;;11.23;3.85;;;20.30;99.90;;;;;;4162735;28;20056;-80
2021/05/12 11:52:16;;;;;;;8.00;3.60;;;20.70;99.90;;;;;;4151463;28;20025;-80
2021/05/12 11:54:44;;;;;;;7.90;3.40;;;21.70;99.90;;;;;;4153108;28;20081;-79
2021/05/12 11:56:54;;;;;;;9.27;3.80;;;22.00;99.90;;;;;;4162388;28;20071;-79
2021/05/12 11:59:18;;;;;;;8.05;3.25;;;;;;;;;;4167296;28;20048;-79
2021/05/12 12:01:19;;;;;;;8.20;3.85;;;;;;;;;;4161519;28;20047;-79
2021/05/12 12:05:51;;;;;;;9.65;2.78;;;22.70;99.90;;;;;;4165122;28;20080;-79
2021/05/12 12:11:06;;;;;;;7.25;2.85;;;24.40;86.00;;;;;;4163200;28;20083;-79
2021/05/12 12:13:16;;;;;;;5.75;2.47;;;23.80;82.00;;;;;;4159762;28;20096;-80
2021/05/12 12:15:16;;;;;;;7.20;2.58;;;23.70;80.30;;;;;;4156330;28;20055;-78
2021/05/12 12:17:18;;;;;;;5.90;2.25;;;22.50;99.30;;;;;;4161498;28;20485;-78
2021/05/12 12:19:38;;;;;;;6.38;2.75;;;22.20;84.00;;;;;;4161616;28;20030;-79
2021/05/12 12:21:58;;;;;;;7.80;2.95;;;22.10;85.60;;;;;;4157697;28;20028;-81
2021/05/12 12:24:45;;;;;;;7.65;3.55;;;22.20;88.90;;;;;;4154877;28;20611;-80
2021/05/12 12:26:53;;;;;;;9.20;3.85;;;21.80;90.70;;;;;;4161608;28;20042;-82
2021/05/12 12:29:14;;;;;;;10.93;3.30;;;21.50;93.30;;;;;;4160046;28;20059;-79
2021/05/12 12:31:53;;;;;;;11.23;3.30;;;21.10;97.80;;;;;;4160268;28;20393;-80
2021/05/12 12:34:08;;;;;;;16.73;3.83;;;21.10;99.90;;;;;;4154842;28;20041;-79
2021/05/12 12:36:12;;;;;;;11.35;3.55;;;;;;;;;;4156174;28;20030;-81
2021/05/12 12:43:22;;;;;;;7.10;3.95;;;22.10;91.30;;;;;;4165865;28;20044;-81
2021/05/12 12:45:44;;;;;;;10.35;4.22;;;22.30;91.50;;;;;;4159122;28;20405;-82
2021/05/12 12:48:22;;;;;;;8.70;3.92;;;22.10;91.60;;;;;;4158890;28;20029;-81
2021/05/12 12:50:32;;;;;;;8.90;3.55;;;21.50;99.90;;;;;;4162327;28;20025;-80
2021/05/12 12:52:54;;;;;;;11.13;4.18;;;21.10;97.90;;;;;;4160738;28;20135;-82
2021/05/12 12:55:04;;;;;;;7.53;3.00;;;21.30;97.70;;;;;;4164773;28;20029;-82
2021/05/12 12:57:04;;;;;;;10.45;3.58;;;21.50;94.70;;;;;;4155027;28;20018;-81
2021/05/12 12:59:13;;;;;;;9.35;3.55;;;21.40;95.50;;;;;;4157308;28;20099;-81
2021/05/12 13:06:50;;;;;;;6.93;2.72;;;22.10;93.30;;;;;;4164667;28;20031;-81
2021/05/12 13:09:22;;;;;;;6.47;3.30;;;21.70;90.20;;;;;;4163108;28;20048;-81
2021/05/12 13:11:22;;;;;;;5.43;2.88;;;21.50;90.70;;;;;;4157119;28;20099;-80
2021/05/12 13:13:34;;;;;;;7.90;3.53;;;21.50;92.30;;;;;;4166715;28;20029;-80
2021/05/12 13:23:14;;;;;;;8.10;4.10;;;22.80;90.60;;;;;;4159095;28;20425;-76
2021/05/12 13:27:35;;;;;;;8.32;3.53;;;23.20;86.90;;;;;;4169212;28;20048;-78
2021/05/12 13:29:38;;;;;;;7.95;3.35;;;22.60;85.50;;;;;;4168809;28;20029;-77
2021/05/12 13:31:39;;;;;;;12.90;3.72;;;22.40;90.30;;;;;;4162706;28;20033;-77
2021/05/12 13:33:58;;;;;;;6.07;3.22;;;22.30;90.00;;;;;;4162588;28;20036;-78
2021/05/12 13:41:16;;;;;;;9.70;3.50;;;;;;;;;;4165806;28;20091;-78
2021/05/12 13:43:21;;;;;;;7.15;3.63;;;25.00;99.90;;;;;;4163547;28;20439;-81
2021/05/12 13:45:27;;;;;;;7.50;3.30;;;25.50;88.20;;;;;;4162220;28;20025;-77
2021/05/12 13:47:46;;;;;;;8.38;2.75;;;25.50;72.20;;;;;;4170312;28;20029;-76
2021/05/12 13:50:05;;;;;;;8.18;3.10;;;25.30;71.20;;;;;;4159087;28;20112;-82
2021/05/12 13:52:07;;;;;;;8.13;3.20;;;24.40;73.30;;;;;;4169341;28;20060;-80
2021/05/12 14:03:49;;;;;;;7.93;2.92;;;24.70;72.10;;;;;;4170477;28;20400;-79
2021/05/12 14:08:50;;;;;;;8.45;3.92;;;24.10;74.50;;;;;;4163676;28;20079;-80
2021/05/12 14:13:52;;;;;;;11.02;3.83;;;24.10;74.10;;;;;;4167658;28;20060;-82
2021/05/12 14:16:39;;;;;;;6.57;2.95;;;24.70;71.00;;;;;;4165704;28;20563;-79
2021/05/12 14:18:40;;;;;;;6.03;3.22;;;25.10;69.00;;;;;;4171202;28;20045;-76
2021/05/12 14:23:00;;;;;;;11.27;3.30;;;24.40;71.30;;;;;;4170766;28;20614;-77
2021/05/12 14:25:01;;;;;;;7.22;3.55;;;23.80;72.10;;;;;;4174574;28;20037;-76
2021/05/12 14:30:17;;;;;;;7.28;3.38;;;22.60;74.50;;;;;;4169676;28;20051;-77
2021/05/12 14:32:36;;;;;;;8.93;3.22;;;22.30;74.80;;;;;;4170136;28;20091;-75
2021/05/12 14:34:56;;;;;;;8.85;3.30;;;;;;;;;;4164423;28;20033;-76
2021/05/12 14:36:57;;;;;;;5.80;2.55;;;24.00;93.90;;;;;;4172130;28;20055;-78
2021/05/12 14:38:58;;;;;;;6.82;2.88;;;;;;;;;;4173666;28;20033;-78
2021/05/12 14:43:56;;;;;;;9.63;3.00;;;26.40;98.70;;;;;;4161948;28;20047;-78
2021/05/12 14:48:54;;;;;;;6.78;2.85;;;27.50;76.30;;;;;;4161739;28;20621;-80
2021/05/12 14:53:24;;;;;;;3.88;2.70;;;27.10;67.60;;;;;;4162875;28;20119;-80
2021/05/12 14:58:03;;;;;;;9.88;3.10;;;26.80;84.60;;;;;;4156358;28;20038;-79
2021/05/12 15:04:42;;;;;;;9.75;3.45;;;27.30;59.80;;;;;;4164510;28;20107;-76
2021/05/12 15:06:52;;;;;;;;;;;24.30;99.90;;;;;;4152696;28;20037;-78
2021/05/12 15:19:08;;;;;;;6.22;3.20;;;21.20;70.60;;;;;;4165711;28;20039;-76
2021/05/12 15:21:09;;;;;;;8.65;3.47;;;20.70;71.50;;;;;;4162363;28;20045;-78
2021/05/12 15:23:10;;;;;;;6.75;2.95;;;20.30;74.10;;;;;;4168564;28;20072;-78
2021/05/12 15:25:15;;;;;;;8.88;2.78;;;20.20;73.50;;;;;;4164517;28;20091;-77
2021/05/12 15:33:07;;;;;;;6.20;3.15;;;20.90;76.00;;;;;;4167305;28;20396;-78
2021/05/12 15:35:26;;;;;;;6.93;2.95;;;20.90;72.40;;;;;;4160989;28;20037;-76
2021/05/12 15:42:06;;;;;;;6.95;3.60;;;20.20;77.70;;;;;;4166484;28;20069;-79
2021/05/12 15:44:07;;;;;;;7.75;3.22;;;20.30;79.00;;;;;;4170544;28;20080;-78
2021/05/12 15:46:26;;;;;;;9.57;4.18;;;20.00;79.50;;;;;;4174591;28;20025;-80